sensor_id;sensor_type;location;lat;lon;timestamp;P1;durP1;ratioP1;P2;durP2;ratioP2
25351;SDS011;13304;48.464;8.712;2023-04-08T00:01:52;8.55;;;5.93;;
25351;SDS011;13304;48.464;8.712;2023-04-08T00:04:18;6.68;;;5.10;;
25351;SDS011;13304;48.464;8.712;2023-04-08T00:06:44;7.43;;;5.75;;
25351;SDS011;13304;48.464;8.712;2023-04-08T00:09:09;7.53;;;5.45;;
25351;SDS011;13304;48.464;8.712;2023-04-08T00:11:35;7.25;;;5.75;;
25351;SDS011;13304;48.464;8.712;2023-04-08T00:14:02;7.93;;;5.70;;
25351;SDS011;13304;48.464;8.712;2023-04-08T00:16:28;9.27;;;5.95;;
25351;SDS011;13304;48.464;8.712;2023-04-08T00:18:54;7.57;;;5.97;;
25351;SDS011;13304;48.464;8.712;2023-04-08T00:21:20;6.80;;;5.15;;
25351;SDS011;13304;48.464;8.712;2023-04-08T00:23:48;8.43;;;6.05;;
25351;SDS011;13304;48.464;8.712;2023-04-08T00:26:14;7.75;;;5.90;;
25351;SDS011;13304;48.464;8.712;2023-04-08T00:28:40;7.85;;;5.60;;
25351;SDS011;13304;48.464;8.712;2023-04-08T00:31:07;6.90;;;5.20;;
25351;SDS011;13304;48.464;8.712;2023-04-08T00:33:33;9.25;;;5.35;;
25351;SDS011;13304;48.464;8.712;2023-04-08T00:35:59;7.85;;;5.78;;
25351;SDS011;13304;48.464;8.712;2023-04-08T00:38:25;6.57;;;5.28;;
25351;SDS011;13304;48.464;8.712;2023-04-08T00:40:51;7.70;;;5.30;;
25351;SDS011;13304;48.464;8.712;2023-04-08T00:43:16;8.65;;;5.53;;
25351;SDS011;13304;48.464;8.712;2023-04-08T00:45:45;7.93;;;5.05;;
25351;SDS011;13304;48.464;8.712;2023-04-08T00:48:11;7.03;;;5.15;;
25351;SDS011;13304;48.464;8.712;2023-04-08T00:50:37;6.07;;;4.68;;
25351;SDS011;13304;48.464;8.712;2023-04-08T00:53:03;9.00;;;5.20;;
25351;SDS011;13304;48.464;8.712;2023-04-08T00:55:28;6.82;;;4.85;;
25351;SDS011;13304;48.464;8.712;2023-04-08T00:57:54;6.03;;;4.60;;
25351;SDS011;13304;48.464;8.712;2023-04-08T01:00:21;6.95;;;4.70;;
25351;SDS011;13304;48.464;8.712;2023-04-08T01:07:51;7.15;;;5.10;;
25351;SDS011;13304;48.464;8.712;2023-04-08T01:12:56;6.28;;;4.60;;
25351;SDS011;13304;48.464;8.712;2023-04-08T01:15:28;6.45;;;4.85;;
25351;SDS011;13304;48.464;8.712;2023-04-08T01:17:55;7.32;;;5.07;;
25351;SDS011;13304;48.464;8.712;2023-04-08T01:20:23;7.53;;;5.13;;
25351;SDS011;13304;48.464;8.712;2023-04-08T01:27:59;6.80;;;5.25;;
25351;SDS011;13304;48.464;8.712;2023-04-08T01:30:27;9.38;;;5.53;;
25351;SDS011;13304;48.464;8.712;2023-04-08T01:32:55;7.32;;;5.68;;
25351;SDS011;13304;48.464;8.712;2023-04-08T01:35:22;9.15;;;5.68;;
25351;SDS011;13304;48.464;8.712;2023-04-08T01:37:49;7.88;;;5.50;;
25351;SDS011;13304;48.464;8.712;2023-04-08T01:40:18;8.02;;;5.40;;
25351;SDS011;13304;48.464;8.712;2023-04-08T01:42:45;6.28;;;4.75;;
25351;SDS011;13304;48.464;8.712;2023-04-08T01:45:12;6.78;;;5.13;;
25351;SDS011;13304;48.464;8.712;2023-04-08T01:47:40;5.97;;;4.60;;
25351;SDS011;13304;48.464;8.712;2023-04-08T01:50:07;5.93;;;4.80;;
25351;SDS011;13304;48.464;8.712;2023-04-08T01:52:34;5.93;;;4.20;;
25351;SDS011;13304;48.464;8.712;2023-04-08T01:55:03;5.33;;;4.67;;
25351;SDS011;13304;48.464;8.712;2023-04-08T01:57:31;6.57;;;5.00;;
25351;SDS011;13304;48.464;8.712;2023-04-08T01:59:59;5.57;;;4.38;;
25351;SDS011;13304;48.464;8.712;2023-04-08T02:02:28;5.55;;;4.60;;
25351;SDS011;13304;48.464;8.712;2023-04-08T02:04:56;7.20;;;4.45;;
25351;SDS011;13304;48.464;8.712;2023-04-08T02:07:22;6.43;;;4.30;;
25351;SDS011;13304;48.464;8.712;2023-04-08T02:09:49;5.95;;;4.47;;
25351;SDS011;13304;48.464;8.712;2023-04-08T02:12:15;7.47;;;5.00;;
25351;SDS011;13304;48.464;8.712;2023-04-08T02:14:41;5.60;;;4.38;;
25351;SDS011;13304;48.464;8.712;2023-04-08T02:17:18;6.70;;;4.78;;
25351;SDS011;13304;48.464;8.712;2023-04-08T02:19:58;6.82;;;4.78;;
25351;SDS011;13304;48.464;8.712;2023-04-08T02:22:28;7.07;;;4.97;;
25351;SDS011;13304;48.464;8.712;2023-04-08T02:25:03;6.13;;;4.63;;
25351;SDS011;13304;48.464;8.712;2023-04-08T02:27:32;6.47;;;4.68;;
25351;SDS011;13304;48.464;8.712;2023-04-08T02:29:59;7.07;;;5.38;;
25351;SDS011;13304;48.464;8.712;2023-04-08T02:32:34;6.32;;;5.03;;
25351;SDS011;13304;48.464;8.712;2023-04-08T02:35:01;6.55;;;5.57;;
25351;SDS011;13304;48.464;8.712;2023-04-08T02:37:28;7.32;;;5.18;;
25351;SDS011;13304;48.464;8.712;2023-04-08T02:39:57;6.80;;;5.55;;
25351;SDS011;13304;48.464;8.712;2023-04-08T02:42:23;8.27;;;5.38;;
25351;SDS011;13304;48.464;8.712;2023-04-08T02:44:49;8.43;;;5.57;;
25351;SDS011;13304;48.464;8.712;2023-04-08T02:47:15;7.88;;;5.93;;
25351;SDS011;13304;48.464;8.712;2023-04-08T02:49:41;8.13;;;5.35;;
25351;SDS011;13304;48.464;8.712;2023-04-08T02:52:07;8.75;;;6.13;;
25351;SDS011;13304;48.464;8.712;2023-04-08T02:54:32;6.75;;;5.30;;
25351;SDS011;13304;48.464;8.712;2023-04-08T02:56:58;8.73;;;5.15;;
25351;SDS011;13304;48.464;8.712;2023-04-08T02:59:24;7.32;;;5.70;;
25351;SDS011;13304;48.464;8.712;2023-04-08T03:01:50;7.63;;;5.53;;
25351;SDS011;13304;48.464;8.712;2023-04-08T03:04:15;8.00;;;5.47;;
25351;SDS011;13304;48.464;8.712;2023-04-08T03:06:41;7.30;;;5.05;;
25351;SDS011;13304;48.464;8.712;2023-04-08T03:09:07;9.43;;;5.05;;
25351;SDS011;13304;48.464;8.712;2023-04-08T03:11:33;6.40;;;5.30;;
25351;SDS011;13304;48.464;8.712;2023-04-08T03:13:59;10.98;;;5.25;;
25351;SDS011;13304;48.464;8.712;2023-04-08T03:16:25;7.38;;;5.55;;
25351;SDS011;13304;48.464;8.712;2023-04-08T03:18:51;7.15;;;5.63;;
25351;SDS011;13304;48.464;8.712;2023-04-08T03:21:17;6.88;;;5.47;;
25351;SDS011;13304;48.464;8.712;2023-04-08T03:23:43;7.18;;;5.53;;
25351;SDS011;13304;48.464;8.712;2023-04-08T03:26:09;6.18;;;5.18;;
25351;SDS011;13304;48.464;8.712;2023-04-08T03:28:35;8.15;;;5.55;;
25351;SDS011;13304;48.464;8.712;2023-04-08T03:31:02;7.82;;;5.60;;
25351;SDS011;13304;48.464;8.712;2023-04-08T03:33:28;9.02;;;5.57;;
25351;SDS011;13304;48.464;8.712;2023-04-08T03:35:54;7.80;;;5.70;;
25351;SDS011;13304;48.464;8.712;2023-04-08T03:38:20;8.07;;;6.40;;
25351;SDS011;13304;48.464;8.712;2023-04-08T03:40:46;8.00;;;5.82;;
25351;SDS011;13304;48.464;8.712;2023-04-08T03:43:12;8.40;;;6.03;;
25351;SDS011;13304;48.464;8.712;2023-04-08T03:45:38;7.95;;;6.13;;
25351;SDS011;13304;48.464;8.712;2023-04-08T03:48:05;6.40;;;5.38;;
25351;SDS011;13304;48.464;8.712;2023-04-08T03:50:31;9.05;;;5.82;;
25351;SDS011;13304;48.464;8.712;2023-04-08T03:52:56;7.25;;;5.75;;
25351;SDS011;13304;48.464;8.712;2023-04-08T03:55:22;8.98;;;5.45;;
25351;SDS011;13304;48.464;8.712;2023-04-08T03:57:48;8.65;;;6.05;;
25351;SDS011;13304;48.464;8.712;2023-04-08T04:00:14;9.02;;;6.22;;
25351;SDS011;13304;48.464;8.712;2023-04-08T04:02:40;9.15;;;6.10;;
25351;SDS011;13304;48.464;8.712;2023-04-08T04:05:06;7.70;;;6.00;;
25351;SDS011;13304;48.464;8.712;2023-04-08T04:07:32;9.57;;;5.88;;
25351;SDS011;13304;48.464;8.712;2023-04-08T04:09:58;7.85;;;6.18;;
25351;SDS011;13304;48.464;8.712;2023-04-08T04:12:24;8.40;;;5.70;;
25351;SDS011;13304;48.464;8.712;2023-04-08T04:14:50;7.82;;;6.00;;
25351;SDS011;13304;48.464;8.712;2023-04-08T04:17:17;9.05;;;6.20;;
25351;SDS011;13304;48.464;8.712;2023-04-08T04:19:43;8.52;;;6.47;;
25351;SDS011;13304;48.464;8.712;2023-04-08T04:22:09;10.00;;;6.70;;
25351;SDS011;13304;48.464;8.712;2023-04-08T04:24:34;8.98;;;5.45;;
25351;SDS011;13304;48.464;8.712;2023-04-08T04:27:00;10.23;;;5.95;;
25351;SDS011;13304;48.464;8.712;2023-04-08T04:29:26;68.28;;;7.82;;
25351;SDS011;13304;48.464;8.712;2023-04-08T04:31:52;137.85;;;9.88;;
25351;SDS011;13304;48.464;8.712;2023-04-08T04:34:17;173.55;;;9.90;;
25351;SDS011;13304;48.464;8.712;2023-04-08T04:36:43;149.18;;;10.27;;
25351;SDS011;13304;48.464;8.712;2023-04-08T04:39:09;169.52;;;9.98;;
25351;SDS011;13304;48.464;8.712;2023-04-08T04:41:34;37.20;;;7.40;;
25351;SDS011;13304;48.464;8.712;2023-04-08T04:44:04;32.80;;;7.13;;
25351;SDS011;13304;48.464;8.712;2023-04-08T04:46:31;10.80;;;7.30;;
25351;SDS011;13304;48.464;8.712;2023-04-08T04:48:56;10.98;;;6.70;;
25351;SDS011;13304;48.464;8.712;2023-04-08T04:51:22;10.70;;;6.88;;
25351;SDS011;13304;48.464;8.712;2023-04-08T04:53:48;10.38;;;6.68;;
25351;SDS011;13304;48.464;8.712;2023-04-08T04:56:14;10.80;;;6.38;;
25351;SDS011;13304;48.464;8.712;2023-04-08T04:58:40;9.20;;;6.35;;
25351;SDS011;13304;48.464;8.712;2023-04-08T05:01:06;9.60;;;6.40;;
25351;SDS011;13304;48.464;8.712;2023-04-08T05:03:32;8.27;;;6.35;;
25351;SDS011;13304;48.464;8.712;2023-04-08T05:05:57;9.38;;;6.18;;
25351;SDS011;13304;48.464;8.712;2023-04-08T05:08:23;9.07;;;7.05;;
25351;SDS011;13304;48.464;8.712;2023-04-08T05:10:49;8.07;;;6.57;;
25351;SDS011;13304;48.464;8.712;2023-04-08T05:13:15;9.13;;;6.88;;
25351;SDS011;13304;48.464;8.712;2023-04-08T05:15:42;9.13;;;6.85;;
25351;SDS011;13304;48.464;8.712;2023-04-08T05:18:09;9.60;;;6.90;;
25351;SDS011;13304;48.464;8.712;2023-04-08T05:20:35;9.82;;;7.18;;
25351;SDS011;13304;48.464;8.712;2023-04-08T05:23:01;8.63;;;6.90;;
25351;SDS011;13304;48.464;8.712;2023-04-08T05:25:28;7.80;;;6.38;;
25351;SDS011;13304;48.464;8.712;2023-04-08T05:27:54;11.98;;;7.15;;
25351;SDS011;13304;48.464;8.712;2023-04-08T05:30:20;8.63;;;6.88;;
25351;SDS011;13304;48.464;8.712;2023-04-08T05:32:46;9.77;;;7.20;;
25351;SDS011;13304;48.464;8.712;2023-04-08T05:35:12;10.50;;;7.22;;
25351;SDS011;13304;48.464;8.712;2023-04-08T05:37:38;10.57;;;7.50;;
25351;SDS011;13304;48.464;8.712;2023-04-08T05:40:04;10.02;;;7.40;;
25351;SDS011;13304;48.464;8.712;2023-04-08T05:42:30;12.30;;;7.50;;
25351;SDS011;13304;48.464;8.712;2023-04-08T05:44:56;9.57;;;6.63;;
25351;SDS011;13304;48.464;8.712;2023-04-08T05:47:22;10.60;;;7.63;;
25351;SDS011;13304;48.464;8.712;2023-04-08T05:49:48;11.73;;;8.38;;
25351;SDS011;13304;48.464;8.712;2023-04-08T05:52:14;14.45;;;8.43;;
25351;SDS011;13304;48.464;8.712;2023-04-08T05:54:43;10.77;;;8.10;;
25351;SDS011;13304;48.464;8.712;2023-04-08T05:57:09;12.00;;;7.80;;
25351;SDS011;13304;48.464;8.712;2023-04-08T05:59:35;11.45;;;8.18;;
25351;SDS011;13304;48.464;8.712;2023-04-08T06:02:01;11.48;;;8.23;;
25351;SDS011;13304;48.464;8.712;2023-04-08T06:04:27;10.30;;;7.78;;
25351;SDS011;13304;48.464;8.712;2023-04-08T06:06:53;10.18;;;7.93;;
25351;SDS011;13304;48.464;8.712;2023-04-08T06:09:18;39.20;;;23.45;;
25351;SDS011;13304;48.464;8.712;2023-04-08T06:11:44;48.53;;;27.52;;
25351;SDS011;13304;48.464;8.712;2023-04-08T06:14:11;20.20;;;13.98;;
25351;SDS011;13304;48.464;8.712;2023-04-08T06:16:37;13.20;;;9.88;;
25351;SDS011;13304;48.464;8.712;2023-04-08T06:19:03;12.00;;;9.10;;
25351;SDS011;13304;48.464;8.712;2023-04-08T06:21:28;11.40;;;8.93;;
25351;SDS011;13304;48.464;8.712;2023-04-08T06:23:54;12.25;;;8.88;;
25351;SDS011;13304;48.464;8.712;2023-04-08T06:26:20;10.13;;;8.60;;
25351;SDS011;13304;48.464;8.712;2023-04-08T06:28:46;13.77;;;9.73;;
25351;SDS011;13304;48.464;8.712;2023-04-08T06:31:11;17.17;;;12.00;;
25351;SDS011;13304;48.464;8.712;2023-04-08T06:33:37;45.85;;;30.00;;
25351;SDS011;13304;48.464;8.712;2023-04-08T06:36:03;49.00;;;28.65;;
25351;SDS011;13304;48.464;8.712;2023-04-08T06:38:30;23.02;;;16.95;;
25351;SDS011;13304;48.464;8.712;2023-04-08T06:41:01;13.85;;;10.80;;
25351;SDS011;13304;48.464;8.712;2023-04-08T06:43:30;14.57;;;10.70;;
25351;SDS011;13304;48.464;8.712;2023-04-08T06:45:56;15.77;;;8.75;;
25351;SDS011;13304;48.464;8.712;2023-04-08T06:48:23;10.98;;;8.82;;
25351;SDS011;13304;48.464;8.712;2023-04-08T06:50:56;10.80;;;8.27;;
25351;SDS011;13304;48.464;8.712;2023-04-08T06:53:22;10.80;;;8.43;;
25351;SDS011;13304;48.464;8.712;2023-04-08T06:55:48;14.63;;;9.52;;
25351;SDS011;13304;48.464;8.712;2023-04-08T06:58:14;12.85;;;8.57;;
25351;SDS011;13304;48.464;8.712;2023-04-08T07:00:41;11.05;;;8.02;;
25351;SDS011;13304;48.464;8.712;2023-04-08T07:03:06;14.98;;;8.70;;
25351;SDS011;13304;48.464;8.712;2023-04-08T07:05:34;12.05;;;7.82;;
25351;SDS011;13304;48.464;8.712;2023-04-08T07:08:01;9.52;;;7.88;;
25351;SDS011;13304;48.464;8.712;2023-04-08T07:10:27;11.70;;;7.80;;
25351;SDS011;13304;48.464;8.712;2023-04-08T07:12:53;10.90;;;7.22;;
25351;SDS011;13304;48.464;8.712;2023-04-08T07:15:19;11.13;;;7.70;;
25351;SDS011;13304;48.464;8.712;2023-04-08T07:17:44;10.43;;;7.18;;
25351;SDS011;13304;48.464;8.712;2023-04-08T07:20:11;10.95;;;8.20;;
25351;SDS011;13304;48.464;8.712;2023-04-08T07:22:38;11.20;;;7.68;;
25351;SDS011;13304;48.464;8.712;2023-04-08T07:25:04;11.10;;;7.00;;
25351;SDS011;13304;48.464;8.712;2023-04-08T07:27:30;12.20;;;8.07;;
25351;SDS011;13304;48.464;8.712;2023-04-08T07:30:00;9.75;;;7.32;;
25351;SDS011;13304;48.464;8.712;2023-04-08T07:32:27;11.15;;;8.13;;
25351;SDS011;13304;48.464;8.712;2023-04-08T07:34:52;11.20;;;8.82;;
25351;SDS011;13304;48.464;8.712;2023-04-08T07:37:18;11.15;;;7.68;;
25351;SDS011;13304;48.464;8.712;2023-04-08T07:39:44;8.90;;;6.68;;
25351;SDS011;13304;48.464;8.712;2023-04-08T07:42:10;11.15;;;7.50;;
25351;SDS011;13304;48.464;8.712;2023-04-08T07:44:36;7.60;;;6.25;;
25351;SDS011;13304;48.464;8.712;2023-04-08T07:47:02;9.25;;;6.72;;
25351;SDS011;13304;48.464;8.712;2023-04-08T07:49:28;8.10;;;6.47;;
25351;SDS011;13304;48.464;8.712;2023-04-08T07:51:54;10.68;;;6.75;;
25351;SDS011;13304;48.464;8.712;2023-04-08T07:54:20;7.20;;;5.90;;
25351;SDS011;13304;48.464;8.712;2023-04-08T07:56:45;9.25;;;6.93;;
25351;SDS011;13304;48.464;8.712;2023-04-08T07:59:11;9.55;;;6.57;;
25351;SDS011;13304;48.464;8.712;2023-04-08T08:01:37;8.77;;;6.85;;
25351;SDS011;13304;48.464;8.712;2023-04-08T08:04:04;11.88;;;6.45;;
25351;SDS011;13304;48.464;8.712;2023-04-08T08:06:30;13.38;;;8.85;;
25351;SDS011;13304;48.464;8.712;2023-04-08T08:08:59;18.48;;;11.93;;
25351;SDS011;13304;48.464;8.712;2023-04-08T08:11:30;10.43;;;8.05;;
25351;SDS011;13304;48.464;8.712;2023-04-08T08:14:03;17.33;;;7.82;;
25351;SDS011;13304;48.464;8.712;2023-04-08T08:16:29;9.15;;;7.35;;
25351;SDS011;13304;48.464;8.712;2023-04-08T08:18:56;10.15;;;7.75;;
25351;SDS011;13304;48.464;8.712;2023-04-08T08:21:25;10.25;;;7.60;;
25351;SDS011;13304;48.464;8.712;2023-04-08T08:23:51;9.63;;;7.45;;
25351;SDS011;13304;48.464;8.712;2023-04-08T08:26:18;12.13;;;7.85;;
25351;SDS011;13304;48.464;8.712;2023-04-08T08:28:45;10.02;;;7.25;;
25351;SDS011;13304;48.464;8.712;2023-04-08T08:31:11;9.73;;;7.55;;
25351;SDS011;13304;48.464;8.712;2023-04-08T08:33:36;10.50;;;7.60;;
25351;SDS011;13304;48.464;8.712;2023-04-08T08:36:03;9.70;;;7.35;;
25351;SDS011;13304;48.464;8.712;2023-04-08T08:38:29;8.77;;;6.65;;
25351;SDS011;13304;48.464;8.712;2023-04-08T08:40:59;10.38;;;7.47;;
25351;SDS011;13304;48.464;8.712;2023-04-08T08:43:25;11.30;;;7.72;;
25351;SDS011;13304;48.464;8.712;2023-04-08T08:45:53;10.98;;;6.88;;
25351;SDS011;13304;48.464;8.712;2023-04-08T08:48:19;9.65;;;7.63;;
25351;SDS011;13304;48.464;8.712;2023-04-08T08:50:45;11.15;;;8.27;;
25351;SDS011;13304;48.464;8.712;2023-04-08T08:53:11;13.50;;;9.05;;
25351;SDS011;13304;48.464;8.712;2023-04-08T08:55:41;10.82;;;7.55;;
25351;SDS011;13304;48.464;8.712;2023-04-08T08:58:07;10.55;;;7.80;;
25351;SDS011;13304;48.464;8.712;2023-04-08T09:00:34;16.80;;;12.73;;
25351;SDS011;13304;48.464;8.712;2023-04-08T09:13:44;10.73;;;8.75;;
25351;SDS011;13304;48.464;8.712;2023-04-08T09:16:11;12.50;;;9.07;;
25351;SDS011;13304;48.464;8.712;2023-04-08T09:18:42;12.25;;;8.85;;
25351;SDS011;13304;48.464;8.712;2023-04-08T09:21:10;12.70;;;9.48;;
25351;SDS011;13304;48.464;8.712;2023-04-08T09:28:44;18.20;;;9.93;;
25351;SDS011;13304;48.464;8.712;2023-04-08T09:31:27;11.65;;;8.52;;
25351;SDS011;13304;48.464;8.712;2023-04-08T09:33:55;13.27;;;9.50;;
25351;SDS011;13304;48.464;8.712;2023-04-08T09:36:22;14.25;;;9.77;;
25351;SDS011;13304;48.464;8.712;2023-04-08T09:38:48;13.52;;;10.40;;
25351;SDS011;13304;48.464;8.712;2023-04-08T09:41:15;14.35;;;10.57;;
25351;SDS011;13304;48.464;8.712;2023-04-08T09:43:49;14.48;;;11.25;;
25351;SDS011;13304;48.464;8.712;2023-04-08T09:46:26;14.38;;;10.52;;
25351;SDS011;13304;48.464;8.712;2023-04-08T09:49:04;12.32;;;10.00;;
25351;SDS011;13304;48.464;8.712;2023-04-08T09:54:13;15.38;;;11.63;;
25351;SDS011;13304;48.464;8.712;2023-04-08T09:57:04;15.32;;;11.27;;
25351;SDS011;13304;48.464;8.712;2023-04-08T09:59:48;13.93;;;11.00;;
25351;SDS011;13304;48.464;8.712;2023-04-08T10:05:11;15.32;;;11.35;;
25351;SDS011;13304;48.464;8.712;2023-04-08T10:07:38;14.75;;;11.27;;
25351;SDS011;13304;48.464;8.712;2023-04-08T10:10:05;16.83;;;11.82;;
25351;SDS011;13304;48.464;8.712;2023-04-08T10:17:55;14.85;;;11.02;;
25351;SDS011;13304;48.464;8.712;2023-04-08T10:23:00;14.35;;;10.85;;
25351;SDS011;13304;48.464;8.712;2023-04-08T10:28:00;14.40;;;10.52;;
25351;SDS011;13304;48.464;8.712;2023-04-08T10:30:37;17.13;;;11.60;;
25351;SDS011;13304;48.464;8.712;2023-04-08T10:33:49;14.05;;;10.30;;
25351;SDS011;13304;48.464;8.712;2023-04-08T10:38:35;12.57;;;9.88;;
25351;SDS011;13304;48.464;8.712;2023-04-08T10:41:05;15.00;;;10.25;;
25351;SDS011;13304;48.464;8.712;2023-04-08T10:43:34;14.02;;;10.95;;
25351;SDS011;13304;48.464;8.712;2023-04-08T10:46:04;14.40;;;10.75;;
25351;SDS011;13304;48.464;8.712;2023-04-08T10:48:34;15.48;;;10.68;;
25351;SDS011;13304;48.464;8.712;2023-04-08T10:51:00;13.57;;;9.75;;
25351;SDS011;13304;48.464;8.712;2023-04-08T10:53:31;17.65;;;11.02;;
25351;SDS011;13304;48.464;8.712;2023-04-08T10:56:07;15.98;;;10.50;;
25351;SDS011;13304;48.464;8.712;2023-04-08T10:58:46;14.07;;;10.52;;
25351;SDS011;13304;48.464;8.712;2023-04-08T11:01:13;13.63;;;9.95;;
25351;SDS011;13304;48.464;8.712;2023-04-08T11:03:38;15.85;;;11.18;;
25351;SDS011;13304;48.464;8.712;2023-04-08T11:06:07;15.00;;;11.10;;
25351;SDS011;13304;48.464;8.712;2023-04-08T11:08:36;13.20;;;10.05;;
25351;SDS011;13304;48.464;8.712;2023-04-08T11:11:02;15.50;;;10.23;;
25351;SDS011;13304;48.464;8.712;2023-04-08T11:13:33;14.23;;;10.30;;
25351;SDS011;13304;48.464;8.712;2023-04-08T11:16:05;15.80;;;10.73;;
25351;SDS011;13304;48.464;8.712;2023-04-08T11:18:39;13.52;;;9.77;;
25351;SDS011;13304;48.464;8.712;2023-04-08T11:21:11;14.60;;;9.73;;
25351;SDS011;13304;48.464;8.712;2023-04-08T11:23:37;13.07;;;10.05;;
25351;SDS011;13304;48.464;8.712;2023-04-08T11:26:03;13.60;;;9.73;;
25351;SDS011;13304;48.464;8.712;2023-04-08T11:28:29;18.25;;;12.75;;
25351;SDS011;13304;48.464;8.712;2023-04-08T11:30:55;14.25;;;10.45;;
25351;SDS011;13304;48.464;8.712;2023-04-08T11:33:24;27.25;;;10.25;;
25351;SDS011;13304;48.464;8.712;2023-04-08T11:35:51;17.38;;;11.23;;
25351;SDS011;13304;48.464;8.712;2023-04-08T11:38:20;15.95;;;11.52;;
25351;SDS011;13304;48.464;8.712;2023-04-08T11:40:57;15.30;;;10.35;;
25351;SDS011;13304;48.464;8.712;2023-04-08T11:43:23;14.40;;;11.15;;
25351;SDS011;13304;48.464;8.712;2023-04-08T11:45:50;16.10;;;10.80;;
25351;SDS011;13304;48.464;8.712;2023-04-08T11:48:16;14.15;;;11.10;;
25351;SDS011;13304;48.464;8.712;2023-04-08T11:50:42;15.95;;;11.18;;
25351;SDS011;13304;48.464;8.712;2023-04-08T11:53:18;16.48;;;10.38;;
25351;SDS011;13304;48.464;8.712;2023-04-08T11:55:45;19.67;;;11.13;;
25351;SDS011;13304;48.464;8.712;2023-04-08T11:58:11;15.65;;;11.10;;
25351;SDS011;13304;48.464;8.712;2023-04-08T12:00:37;14.18;;;9.65;;
25351;SDS011;13304;48.464;8.712;2023-04-08T12:03:03;13.07;;;9.38;;
25351;SDS011;13304;48.464;8.712;2023-04-08T12:05:30;16.02;;;10.25;;
25351;SDS011;13304;48.464;8.712;2023-04-08T12:07:55;15.00;;;9.98;;
25351;SDS011;13304;48.464;8.712;2023-04-08T12:10:21;12.90;;;9.50;;
25351;SDS011;13304;48.464;8.712;2023-04-08T12:12:49;13.90;;;10.40;;
25351;SDS011;13304;48.464;8.712;2023-04-08T12:15:15;16.23;;;9.30;;
25351;SDS011;13304;48.464;8.712;2023-04-08T12:17:41;14.98;;;9.20;;
25351;SDS011;13304;48.464;8.712;2023-04-08T12:20:08;14.77;;;9.23;;
25351;SDS011;13304;48.464;8.712;2023-04-08T12:22:36;12.40;;;9.23;;
25351;SDS011;13304;48.464;8.712;2023-04-08T12:25:02;11.63;;;8.57;;
25351;SDS011;13304;48.464;8.712;2023-04-08T12:27:28;14.35;;;9.02;;
25351;SDS011;13304;48.464;8.712;2023-04-08T12:29:54;14.18;;;10.13;;
25351;SDS011;13304;48.464;8.712;2023-04-08T12:32:20;14.18;;;9.68;;
25351;SDS011;13304;48.464;8.712;2023-04-08T12:34:46;16.25;;;10.80;;
25351;SDS011;13304;48.464;8.712;2023-04-08T12:37:12;16.80;;;10.10;;
25351;SDS011;13304;48.464;8.712;2023-04-08T12:39:38;16.85;;;10.70;;
25351;SDS011;13304;48.464;8.712;2023-04-08T12:42:04;14.80;;;10.35;;
25351;SDS011;13304;48.464;8.712;2023-04-08T12:44:29;16.55;;;10.50;;
25351;SDS011;13304;48.464;8.712;2023-04-08T12:46:55;14.15;;;9.75;;
25351;SDS011;13304;48.464;8.712;2023-04-08T12:49:24;13.98;;;10.07;;
25351;SDS011;13304;48.464;8.712;2023-04-08T12:51:50;15.57;;;9.90;;
25351;SDS011;13304;48.464;8.712;2023-04-08T12:54:16;18.00;;;11.25;;
25351;SDS011;13304;48.464;8.712;2023-04-08T12:56:42;15.63;;;10.75;;
25351;SDS011;13304;48.464;8.712;2023-04-08T12:59:08;16.35;;;10.00;;
25351;SDS011;13304;48.464;8.712;2023-04-08T13:01:34;14.50;;;10.63;;
25351;SDS011;13304;48.464;8.712;2023-04-08T13:04:00;13.70;;;9.85;;
25351;SDS011;13304;48.464;8.712;2023-04-08T13:06:26;15.43;;;10.27;;
25351;SDS011;13304;48.464;8.712;2023-04-08T13:08:52;14.88;;;10.85;;
25351;SDS011;13304;48.464;8.712;2023-04-08T13:11:18;15.38;;;10.65;;
25351;SDS011;13304;48.464;8.712;2023-04-08T13:13:45;16.13;;;11.18;;
25351;SDS011;13304;48.464;8.712;2023-04-08T13:16:11;17.75;;;12.38;;
25351;SDS011;13304;48.464;8.712;2023-04-08T13:18:40;14.80;;;10.65;;
25351;SDS011;13304;48.464;8.712;2023-04-08T13:21:06;14.20;;;9.73;;
25351;SDS011;13304;48.464;8.712;2023-04-08T13:23:32;18.50;;;10.98;;
25351;SDS011;13304;48.464;8.712;2023-04-08T13:25:59;13.85;;;10.20;;
25351;SDS011;13304;48.464;8.712;2023-04-08T13:28:25;14.00;;;10.15;;
25351;SDS011;13304;48.464;8.712;2023-04-08T13:30:51;15.65;;;10.93;;
25351;SDS011;13304;48.464;8.712;2023-04-08T13:33:17;14.65;;;10.10;;
25351;SDS011;13304;48.464;8.712;2023-04-08T13:35:43;14.57;;;9.60;;
25351;SDS011;13304;48.464;8.712;2023-04-08T13:38:09;16.80;;;10.73;;
25351;SDS011;13304;48.464;8.712;2023-04-08T13:40:35;15.32;;;11.32;;
25351;SDS011;13304;48.464;8.712;2023-04-08T13:43:01;16.88;;;10.57;;
25351;SDS011;13304;48.464;8.712;2023-04-08T13:45:27;13.52;;;10.15;;
25351;SDS011;13304;48.464;8.712;2023-04-08T13:47:53;13.60;;;9.93;;
25351;SDS011;13304;48.464;8.712;2023-04-08T13:50:19;12.27;;;9.20;;
25351;SDS011;13304;48.464;8.712;2023-04-08T13:52:45;12.65;;;9.75;;
25351;SDS011;13304;48.464;8.712;2023-04-08T13:55:10;14.00;;;10.25;;
25351;SDS011;13304;48.464;8.712;2023-04-08T13:57:36;13.27;;;10.13;;
25351;SDS011;13304;48.464;8.712;2023-04-08T14:00:02;16.52;;;10.70;;
25351;SDS011;13304;48.464;8.712;2023-04-08T14:02:29;12.95;;;9.95;;
25351;SDS011;13304;48.464;8.712;2023-04-08T14:04:55;14.35;;;10.43;;
25351;SDS011;13304;48.464;8.712;2023-04-08T14:07:21;13.38;;;10.00;;
25351;SDS011;13304;48.464;8.712;2023-04-08T14:09:48;12.82;;;10.27;;
25351;SDS011;13304;48.464;8.712;2023-04-08T14:12:14;16.20;;;10.75;;
25351;SDS011;13304;48.464;8.712;2023-04-08T14:14:40;16.65;;;10.88;;
25351;SDS011;13304;48.464;8.712;2023-04-08T14:17:05;14.25;;;10.43;;
25351;SDS011;13304;48.464;8.712;2023-04-08T14:19:31;16.23;;;11.68;;
25351;SDS011;13304;48.464;8.712;2023-04-08T14:21:57;18.05;;;11.65;;
25351;SDS011;13304;48.464;8.712;2023-04-08T14:24:23;16.27;;;10.82;;
25351;SDS011;13304;48.464;8.712;2023-04-08T14:26:49;13.73;;;10.80;;
25351;SDS011;13304;48.464;8.712;2023-04-08T14:29:14;17.73;;;11.77;;
25351;SDS011;13304;48.464;8.712;2023-04-08T14:31:40;14.77;;;11.23;;
25351;SDS011;13304;48.464;8.712;2023-04-08T14:34:06;18.25;;;11.90;;
25351;SDS011;13304;48.464;8.712;2023-04-08T14:36:32;14.82;;;10.82;;
25351;SDS011;13304;48.464;8.712;2023-04-08T14:38:58;16.50;;;11.23;;
25351;SDS011;13304;48.464;8.712;2023-04-08T14:41:24;17.52;;;10.45;;
25351;SDS011;13304;48.464;8.712;2023-04-08T14:43:51;14.73;;;11.18;;
25351;SDS011;13304;48.464;8.712;2023-04-08T14:46:17;16.63;;;10.77;;
25351;SDS011;13304;48.464;8.712;2023-04-08T14:48:43;15.98;;;10.90;;
25351;SDS011;13304;48.464;8.712;2023-04-08T14:51:09;14.90;;;10.70;;
25351;SDS011;13304;48.464;8.712;2023-04-08T14:53:35;14.48;;;10.07;;
25351;SDS011;13304;48.464;8.712;2023-04-08T14:56:01;14.55;;;10.63;;
25351;SDS011;13304;48.464;8.712;2023-04-08T14:58:28;15.70;;;10.30;;
25351;SDS011;13304;48.464;8.712;2023-04-08T15:00:53;17.10;;;10.20;;
25351;SDS011;13304;48.464;8.712;2023-04-08T15:03:19;16.70;;;11.20;;
25351;SDS011;13304;48.464;8.712;2023-04-08T15:05:46;14.95;;;10.05;;
25351;SDS011;13304;48.464;8.712;2023-04-08T15:08:12;17.33;;;10.75;;
25351;SDS011;13304;48.464;8.712;2023-04-08T15:10:38;14.35;;;10.25;;
25351;SDS011;13304;48.464;8.712;2023-04-08T15:13:04;14.27;;;9.40;;
25351;SDS011;13304;48.464;8.712;2023-04-08T15:15:30;13.65;;;9.43;;
25351;SDS011;13304;48.464;8.712;2023-04-08T15:17:56;13.32;;;9.80;;
25351;SDS011;13304;48.464;8.712;2023-04-08T15:20:22;13.80;;;8.88;;
25351;SDS011;13304;48.464;8.712;2023-04-08T15:22:47;11.98;;;8.73;;